Jupiter, Florida
Current Conditions -  °F | °C
As of 12:53 AM on Thursday 29 Jan 2015 (Local Time) from KPBI Reporting Station
Broken Clouds Broken Clouds  
Wind Chill: 53°   Ceiling: 4500
Heat Index: 53°   Visibility: 10mi
Dew Point: 47°   Wind: 9mph
Humidity: 80%   Direction: 330°NNW
Pressure: 30.18"   Gusts: NA
Location:  26.93°N, 80.1°W
Report Text: KPBI 290553Z 33008KT 10SM BKN045 12/08 A3018 RMK AO2 SLP220 T01170083 10144 20111 56003
Loading
Personal Weather Stations






























Interactive Weather Map New forecast layout! Learn more

10-Day Weather Forecast

Advertisements
Track Severe Weather on mobile